createdAt,value
2022-12-15T00:02:10.390Z,12.70
2022-12-15T00:04:55.701Z,12.48
2022-12-15T00:07:40.733Z,13.18
2022-12-15T00:10:26.061Z,14.63
2022-12-15T00:13:11.341Z,13.85
2022-12-15T00:15:56.335Z,16.75
2022-12-15T00:18:41.192Z,18.52
2022-12-15T00:21:26.113Z,19.73
2022-12-15T00:24:10.961Z,14.90
2022-12-15T00:26:55.974Z,14.52
2022-12-15T00:29:40.877Z,12.90
2022-12-15T00:32:26.155Z,13.48
2022-12-15T00:35:11.073Z,13.60
2022-12-15T00:37:55.984Z,13.32
2022-12-15T00:40:22.517Z,11.90
2022-12-15T00:42:49.561Z,13.40
2022-12-15T00:45:16.645Z,13.63
2022-12-15T00:47:43.233Z,14.25
2022-12-15T00:50:28.386Z,16.88
2022-12-15T00:53:13.921Z,18.13
2022-12-15T00:55:59.067Z,16.60
2022-12-15T00:58:43.889Z,15.07
2022-12-15T01:01:29.318Z,15.57
2022-12-15T01:04:14.660Z,15.93
2022-12-15T01:06:59.874Z,14.10
2022-12-15T01:09:45.268Z,14.90
2022-12-15T01:12:30.446Z,15.02
2022-12-15T01:15:15.395Z,15.95
2022-12-15T01:18:00.270Z,17.02
2022-12-15T01:20:26.907Z,14.45
2022-12-15T01:22:55.399Z,13.80
2022-12-15T01:25:24.825Z,14.23
2022-12-15T01:27:52.179Z,13.55
2022-12-15T01:30:22.541Z,15.95
2022-12-15T01:32:49.756Z,15.57
2022-12-15T01:35:17.695Z,16.52
2022-12-15T01:37:44.888Z,14.93
2022-12-15T01:40:36.292Z,15.98
2022-12-15T01:43:03.279Z,14.60
2022-12-15T01:45:29.796Z,13.90
2022-12-15T01:48:00.709Z,13.30
2022-12-15T01:50:29.624Z,12.02
2022-12-15T01:52:56.218Z,11.52
2022-12-15T01:55:28.219Z,10.85
2022-12-15T01:57:58.599Z,10.85
2022-12-15T02:00:25.285Z,11.75
2022-12-15T02:02:52.163Z,12.55
2022-12-15T02:05:20.481Z,12.05
2022-12-15T02:07:47.044Z,12.05
2022-12-15T02:10:16.629Z,12.23
2022-12-15T02:12:52.110Z,13.02
2022-12-15T02:15:21.632Z,12.55
2022-12-15T02:18:14.419Z,13.90
2022-12-15T02:21:01.677Z,13.88
2022-12-15T02:23:56.131Z,12.77
2022-12-15T02:26:40.908Z,12.80
2022-12-15T02:29:26.190Z,12.18
2022-12-15T02:32:07.694Z,13.75
2022-12-15T02:34:49.793Z,13.00
2022-12-15T02:37:23.430Z,13.07
2022-12-15T02:39:50.045Z,16.05
2022-12-15T02:42:16.670Z,16.25
2022-12-15T02:44:59.532Z,15.48
2022-12-15T02:47:47.632Z,11.45
2022-12-15T02:50:29.668Z,15.48
2022-12-15T02:53:08.186Z,14.98
2022-12-15T02:55:50.414Z,16.42
2022-12-15T02:58:45.098Z,17.40
2022-12-15T03:01:34.733Z,18.05
2022-12-15T03:04:03.343Z,20.38
2022-12-15T03:06:29.922Z,23.05
2022-12-15T03:08:56.480Z,23.35
2022-12-15T03:11:23.253Z,27.10
2022-12-15T03:13:50.547Z,25.35
2022-12-15T03:16:17.204Z,26.17
2022-12-15T03:18:43.858Z,25.45
2022-12-15T03:21:10.504Z,24.05
2022-12-15T03:23:37.060Z,25.75
2022-12-15T03:26:03.674Z,24.10
2022-12-15T03:28:30.201Z,24.15
2022-12-15T03:30:56.790Z,25.48
2022-12-15T03:33:23.383Z,22.70
2022-12-15T03:35:51.049Z,22.17
2022-12-15T03:38:18.605Z,19.80
2022-12-15T03:40:45.190Z,21.17
2022-12-15T03:43:11.866Z,20.27
2022-12-15T03:45:38.442Z,21.27
2022-12-15T03:48:05.142Z,23.38
2022-12-15T03:50:31.758Z,26.95
2022-12-15T03:53:00.814Z,28.27
2022-12-15T03:55:28.948Z,31.60
2022-12-15T03:57:56.132Z,24.30
2022-12-15T04:00:27.359Z,19.27
2022-12-15T04:02:54.166Z,18.58
2022-12-15T04:05:26.855Z,18.17
2022-12-15T04:07:54.914Z,17.60
2022-12-15T04:10:22.663Z,24.05
2022-12-15T04:12:49.682Z,18.00
2022-12-15T04:15:16.321Z,16.10
2022-12-15T04:17:43.313Z,20.63
2022-12-15T04:20:10.484Z,16.35
2022-12-15T04:22:45.114Z,15.85
2022-12-15T04:25:33.979Z,14.85
2022-12-15T04:28:19.645Z,25.10
2022-12-15T04:31:09.674Z,23.45
2022-12-15T04:33:57.839Z,26.08
2022-12-15T04:36:42.979Z,32.42
2022-12-15T04:39:28.426Z,29.38
2022-12-15T04:42:16.554Z,24.85
2022-12-15T04:45:02.137Z,26.38
2022-12-15T04:47:48.033Z,27.20
2022-12-15T04:50:32.918Z,29.63
2022-12-15T04:53:29.608Z,33.40
2022-12-15T04:56:18.628Z,30.15
2022-12-15T04:59:04.536Z,31.23
2022-12-15T05:01:49.745Z,32.78
2022-12-15T05:04:34.940Z,26.83
2022-12-15T05:07:20.076Z,21.55
2022-12-15T05:10:08.247Z,30.42
2022-12-15T05:12:56.214Z,28.88
2022-12-15T05:15:41.591Z,35.63
2022-12-15T05:18:26.574Z,35.88
2022-12-15T05:21:11.539Z,32.55
2022-12-15T05:23:56.226Z,33.53
2022-12-15T05:26:41.161Z,34.33
2022-12-15T05:29:26.177Z,43.78
2022-12-15T05:31:52.880Z,43.00
2022-12-15T05:34:24.201Z,40.92
2022-12-15T05:36:51.083Z,43.47
2022-12-15T05:39:17.897Z,37.90
2022-12-15T05:41:44.816Z,33.78
2022-12-15T05:44:11.592Z,36.70
2022-12-15T05:46:38.578Z,37.38
2022-12-15T05:49:06.677Z,36.15
2022-12-15T05:51:34.101Z,38.20
2022-12-15T05:54:00.664Z,30.75
2022-12-15T05:56:28.315Z,32.40
2022-12-15T05:58:57.344Z,29.02
2022-12-15T06:01:25.744Z,28.83
2022-12-15T06:03:52.373Z,34.67
2022-12-15T06:06:20.083Z,39.67
2022-12-15T06:08:46.737Z,38.33
2022-12-15T06:11:18.522Z,45.35
2022-12-15T06:13:45.553Z,52.00
2022-12-15T06:16:12.200Z,69.60
2022-12-15T06:18:42.714Z,60.45
2022-12-15T06:21:18.024Z,98.38
2022-12-15T06:23:45.276Z,102.63
2022-12-15T06:26:18.630Z,57.80
2022-12-15T06:31:12.846Z,28.88
2022-12-15T06:33:40.163Z,30.13
2022-12-15T06:36:13.329Z,42.33
2022-12-15T06:38:43.560Z,27.50
2022-12-15T06:41:15.408Z,34.25
2022-12-15T06:43:42.578Z,29.10
2022-12-15T06:46:09.460Z,23.83
2022-12-15T06:48:36.555Z,29.55
2022-12-15T06:51:13.297Z,35.03
2022-12-15T06:53:53.788Z,30.48
2022-12-15T06:56:28.809Z,19.60
2022-12-15T06:58:59.327Z,17.08
2022-12-15T07:01:26.481Z,14.07
2022-12-15T07:03:53.656Z,16.63
2022-12-15T07:06:20.630Z,17.80
2022-12-15T07:08:53.329Z,18.40
2022-12-15T07:11:21.771Z,17.60
2022-12-15T07:13:52.853Z,17.38
2022-12-15T07:16:21.618Z,18.05
2022-12-15T07:18:48.514Z,19.95
2022-12-15T07:21:15.301Z,12.30
2022-12-15T07:23:58.095Z,11.43
2022-12-15T07:26:25.888Z,12.93
2022-12-15T07:28:53.978Z,17.35
2022-12-15T07:31:21.954Z,17.17
2022-12-15T07:33:49.200Z,14.02
2022-12-15T07:36:15.799Z,16.13
2022-12-15T07:38:42.951Z,16.52
2022-12-15T07:41:09.880Z,21.05
2022-12-15T07:43:37.460Z,25.15
2022-12-15T07:46:05.280Z,34.97
2022-12-15T07:48:32.478Z,31.13
2022-12-15T07:51:07.389Z,16.75
2022-12-15T07:53:37.087Z,12.10
2022-12-15T07:56:07.801Z,13.43
2022-12-15T07:58:35.588Z,26.90
2022-12-15T08:01:05.188Z,14.95
2022-12-15T08:03:32.917Z,15.00
2022-12-15T08:06:05.409Z,13.95
2022-12-15T08:08:33.268Z,12.90
2022-12-15T08:11:11.220Z,13.35
2022-12-15T08:14:02.178Z,9.75
2022-12-15T08:16:25.333Z,9.32
2022-12-15T08:18:51.999Z,5.93
2022-12-15T08:21:18.831Z,4.45
2022-12-15T08:23:45.726Z,15.35
2022-12-15T08:26:15.135Z,7.10
2022-12-15T08:28:42.749Z,5.07
2022-12-15T08:31:12.129Z,5.38
2022-12-15T08:33:39.325Z,5.93
2022-12-15T08:36:08.798Z,5.45
2022-12-15T08:38:36.839Z,5.47
2022-12-15T08:41:13.243Z,6.88
2022-12-15T08:43:47.588Z,4.70
2022-12-15T08:46:16.138Z,6.03
2022-12-15T08:48:43.197Z,6.43
2022-12-15T08:51:10.300Z,7.05
2022-12-15T08:53:37.090Z,7.47
2022-12-15T08:56:09.613Z,6.80
2022-12-15T08:58:36.811Z,6.30
2022-12-15T09:01:05.685Z,6.80
2022-12-15T09:03:33.983Z,7.20
2022-12-15T09:06:12.269Z,9.40
2022-12-15T09:08:39.111Z,9.65
2022-12-15T09:11:05.916Z,10.23
2022-12-15T09:13:33.289Z,11.80
2022-12-15T09:16:10.288Z,10.98
2022-12-15T09:18:37.815Z,10.38
2022-12-15T09:21:07.238Z,10.02
2022-12-15T09:23:35.421Z,9.00
2022-12-15T09:26:10.193Z,8.20
2022-12-15T09:28:40.123Z,7.65
2022-12-15T09:31:09.770Z,6.90
2022-12-15T09:33:37.009Z,7.15
2022-12-15T09:36:04.667Z,7.78
2022-12-15T09:38:33.394Z,9.20
2022-12-15T09:41:09.171Z,5.90
2022-12-15T09:43:47.562Z,5.25
2022-12-15T09:47:01.317Z,5.35
2022-12-15T09:49:52.561Z,4.40
2022-12-15T09:52:29.095Z,5.00
2022-12-15T09:54:57.979Z,8.52
2022-12-15T09:57:37.048Z,5.88
2022-12-15T10:00:21.615Z,6.10
2022-12-15T10:03:21.250Z,5.57
2022-12-15T10:09:18.451Z,4.10
2022-12-15T10:11:51.056Z,4.43
2022-12-15T10:14:27.245Z,5.43
2022-12-15T10:17:21.617Z,5.97
2022-12-15T10:20:19.054Z,5.93
2022-12-15T10:22:50.302Z,5.40
2022-12-15T10:25:30.488Z,4.90
2022-12-15T10:28:15.966Z,4.63
2022-12-15T10:30:51.508Z,5.15
2022-12-15T10:33:21.249Z,4.88
2022-12-15T10:35:48.982Z,4.88
2022-12-15T10:38:40.492Z,4.22
2022-12-15T10:41:15.262Z,8.77
2022-12-15T10:43:44.500Z,4.63
2022-12-15T10:46:15.177Z,4.10
2022-12-15T10:48:44.084Z,3.78
2022-12-15T10:51:44.070Z,4.20
2022-12-15T10:54:16.377Z,4.15
2022-12-15T10:56:50.220Z,4.13
2022-12-15T10:59:25.466Z,3.60
2022-12-15T11:01:52.697Z,3.90
2022-12-15T11:04:29.606Z,3.58
2022-12-15T11:07:02.000Z,3.22
2022-12-15T11:09:37.484Z,3.70
2022-12-15T11:12:37.338Z,3.53
2022-12-15T11:15:23.902Z,3.70
2022-12-15T11:17:59.751Z,3.80
2022-12-15T11:20:35.543Z,4.13
2022-12-15T11:23:13.278Z,3.78
2022-12-15T11:25:54.916Z,4.20
2022-12-15T11:28:48.579Z,4.45
2022-12-15T11:31:27.096Z,4.53
2022-12-15T11:33:54.754Z,4.20
2022-12-15T11:36:50.521Z,4.22
2022-12-15T11:39:32.589Z,4.78
2022-12-15T11:42:30.965Z,4.90
2022-12-15T11:45:24.074Z,5.40
2022-12-15T11:48:00.012Z,6.43
2022-12-15T11:50:30.372Z,5.40
2022-12-15T11:53:17.869Z,5.50
2022-12-15T11:55:56.948Z,11.35
2022-12-15T11:58:36.430Z,8.43
2022-12-15T12:01:42.148Z,6.10
2022-12-15T12:04:18.145Z,5.63
2022-12-15T12:07:18.307Z,4.88
2022-12-15T12:09:57.089Z,5.10
2022-12-15T12:12:32.845Z,3.70
2022-12-15T12:15:11.458Z,3.58
2022-12-15T12:17:49.535Z,4.85
2022-12-15T12:20:19.284Z,5.10
2022-12-15T12:23:02.447Z,4.10
2022-12-15T12:25:39.873Z,5.53
2022-12-15T12:28:35.055Z,3.90
2022-12-15T12:31:04.185Z,5.70
2022-12-15T12:33:36.781Z,6.35
2022-12-15T12:36:11.149Z,6.33
2022-12-15T12:38:50.578Z,5.13
2022-12-15T12:41:40.524Z,5.00
2022-12-15T12:44:37.200Z,5.95
2022-12-15T12:47:29.971Z,5.45
2022-12-15T12:50:22.609Z,5.20
2022-12-15T12:53:14.018Z,4.50
2022-12-15T12:55:44.047Z,4.80
2022-12-15T12:58:42.268Z,4.20
2022-12-15T13:01:11.478Z,4.90
2022-12-15T13:03:42.380Z,4.55
2022-12-15T13:06:50.943Z,4.53
2022-12-15T13:09:17.559Z,5.78
2022-12-15T13:11:52.959Z,3.53
2022-12-15T13:14:26.333Z,4.07
2022-12-15T13:19:57.031Z,3.97
2022-12-15T13:22:27.650Z,4.20
2022-12-15T13:24:56.532Z,4.43
2022-12-15T13:27:23.988Z,5.05
2022-12-15T13:30:05.900Z,5.00
2022-12-15T13:32:32.715Z,4.75
2022-12-15T13:35:24.256Z,4.95
2022-12-15T13:37:52.881Z,29.08
2022-12-15T13:40:35.274Z,34.35
2022-12-15T13:43:05.060Z,13.65
2022-12-15T13:45:42.130Z,8.27
2022-12-15T13:48:20.403Z,7.68
2022-12-15T13:51:02.643Z,7.68
2022-12-15T13:53:38.342Z,6.80
2022-12-15T13:56:34.194Z,8.05
2022-12-15T13:59:13.446Z,11.32
2022-12-15T14:01:50.930Z,14.20
2022-12-15T14:04:18.989Z,15.68
2022-12-15T14:06:54.102Z,12.95
2022-12-15T14:09:30.873Z,40.30
2022-12-15T14:11:58.288Z,23.35
2022-12-15T14:14:29.154Z,37.08
2022-12-15T14:17:01.901Z,38.95
2022-12-15T14:19:43.920Z,44.22
2022-12-15T14:22:29.909Z,44.47
2022-12-15T14:25:03.136Z,42.22
2022-12-15T14:27:32.642Z,47.67
2022-12-15T14:30:25.609Z,45.40
2022-12-15T14:32:58.203Z,35.78
2022-12-15T14:35:44.726Z,32.67
2022-12-15T14:38:32.308Z,31.25
2022-12-15T14:41:02.254Z,32.83
2022-12-15T14:43:34.701Z,37.00
2022-12-15T14:46:25.624Z,39.92
2022-12-15T14:48:57.301Z,50.75
2022-12-15T14:51:26.756Z,55.95
2022-12-15T14:53:54.468Z,55.72
2022-12-15T14:56:27.603Z,57.17
2022-12-15T14:59:17.334Z,46.67
2022-12-15T15:01:59.728Z,42.70
2022-12-15T15:03:10.971Z,4.80
2022-12-15T15:04:33.409Z,41.55
2022-12-15T15:07:02.460Z,41.80
2022-12-15T15:09:30.338Z,43.78
2022-12-15T15:12:04.762Z,51.92
2022-12-15T15:14:40.310Z,47.60
2022-12-15T15:17:17.008Z,28.23
2022-12-15T15:19:51.938Z,36.17
2022-12-15T15:22:34.298Z,57.65
2022-12-15T15:25:01.270Z,46.42
2022-12-15T15:27:31.199Z,48.17
2022-12-15T15:30:27.379Z,50.17
2022-12-15T15:32:59.153Z,33.38
2022-12-15T15:35:34.744Z,31.20
2022-12-15T15:38:05.664Z,20.70
2022-12-15T15:40:32.232Z,16.70
2022-12-15T15:42:59.842Z,17.52
2022-12-15T15:45:26.571Z,18.52
2022-12-15T15:47:56.211Z,21.20
2022-12-15T15:50:29.002Z,25.23
2022-12-15T15:52:56.735Z,24.73
2022-12-15T15:55:33.641Z,19.00
2022-12-15T15:58:09.121Z,15.45
2022-12-15T16:00:35.742Z,15.00
2022-12-15T16:03:02.421Z,14.25
2022-12-15T16:05:29.106Z,11.30
2022-12-15T16:07:55.766Z,13.05
2022-12-15T16:10:22.360Z,16.52
2022-12-15T16:12:52.657Z,17.88
2022-12-15T16:15:23.244Z,18.10
2022-12-15T16:17:50.141Z,19.33
2022-12-15T16:20:18.693Z,21.15
2022-12-15T16:22:51.247Z,25.33
2022-12-15T16:25:22.705Z,43.23
2022-12-15T16:27:49.820Z,40.50
2022-12-15T16:30:18.865Z,57.42
2022-12-15T16:32:45.629Z,76.85
2022-12-15T16:35:12.719Z,81.22
2022-12-15T16:37:46.386Z,83.88
2022-12-15T16:40:16.106Z,95.80
2022-12-15T16:42:42.779Z,79.15
2022-12-15T16:45:15.931Z,84.22
2022-12-15T16:47:42.793Z,82.93
2022-12-15T16:50:12.957Z,69.97
2022-12-15T16:52:40.121Z,69.78
2022-12-15T16:55:09.673Z,68.70
2022-12-15T16:57:36.320Z,61.58
2022-12-15T17:00:03.648Z,74.65
2022-12-15T17:02:31.166Z,67.00
2022-12-15T17:04:57.971Z,69.03
2022-12-15T17:07:27.643Z,61.33
2022-12-15T17:09:54.345Z,48.72
2022-12-15T17:12:20.995Z,37.28
2022-12-15T17:14:47.680Z,41.88
2022-12-15T17:17:18.634Z,47.40
2022-12-15T17:20:11.819Z,46.53
2022-12-15T17:22:33.281Z,35.63
2022-12-15T17:25:00.168Z,30.05
2022-12-15T17:27:29.479Z,29.92
2022-12-15T17:29:59.216Z,31.98
2022-12-15T17:32:25.843Z,28.70
2022-12-15T17:34:52.433Z,33.30
2022-12-15T17:37:19.147Z,33.30
2022-12-15T17:39:51.116Z,33.70
2022-12-15T17:42:20.102Z,32.00
2022-12-15T17:44:48.111Z,27.27
2022-12-15T17:47:16.528Z,24.13
2022-12-15T17:49:43.824Z,20.73
2022-12-15T17:52:16.650Z,16.35
2022-12-15T17:54:43.375Z,16.08
2022-12-15T17:57:12.546Z,14.52
2022-12-15T17:59:39.237Z,25.90
2022-12-15T18:02:06.182Z,30.52
2022-12-15T18:04:32.980Z,33.20
2022-12-15T18:07:02.158Z,33.45
2022-12-15T18:09:30.719Z,31.02
2022-12-15T18:11:57.526Z,33.85
2022-12-15T18:14:24.136Z,32.80
2022-12-15T18:16:50.668Z,29.00
2022-12-15T18:19:17.229Z,25.67
2022-12-15T18:21:44.190Z,24.63
2022-12-15T18:24:17.269Z,27.30
2022-12-15T18:26:44.437Z,27.88
2022-12-15T18:29:18.369Z,27.33
2022-12-15T18:31:47.146Z,28.60
2022-12-15T18:34:17.600Z,22.92
2022-12-15T18:36:44.981Z,16.60
2022-12-15T18:39:26.296Z,14.88
2022-12-15T18:41:56.195Z,14.68
2022-12-15T18:44:27.997Z,22.98
2022-12-15T18:46:55.092Z,27.58
2022-12-15T18:49:22.756Z,23.83
2022-12-15T18:51:49.940Z,24.15
2022-12-15T18:54:24.322Z,21.83
2022-12-15T18:56:51.794Z,21.77
2022-12-15T18:59:19.288Z,20.35
2022-12-15T19:01:49.284Z,15.93
2022-12-15T19:04:16.245Z,18.65
2022-12-15T19:06:43.745Z,27.45
2022-12-15T19:09:19.920Z,23.63
2022-12-15T19:12:07.027Z,17.42
2022-12-15T19:14:42.984Z,13.48
2022-12-15T19:17:40.346Z,11.57
2022-12-15T19:20:35.964Z,11.57
2022-12-15T19:23:02.927Z,14.57
2022-12-15T19:25:30.724Z,17.25
2022-12-15T19:28:00.250Z,14.93
2022-12-15T19:30:38.601Z,14.52
2022-12-15T19:33:08.492Z,14.77
2022-12-15T19:35:36.715Z,19.63
2022-12-15T19:38:04.141Z,24.55
2022-12-15T19:40:34.654Z,26.33
2022-12-15T19:43:03.305Z,50.67
2022-12-15T19:45:32.133Z,56.78
2022-12-15T19:47:59.539Z,47.38
2022-12-15T19:50:36.188Z,48.42
2022-12-15T19:53:08.328Z,52.50
2022-12-15T19:55:35.812Z,68.32
2022-12-15T19:58:30.115Z,83.47
2022-12-15T20:01:04.134Z,51.55
2022-12-15T20:03:31.471Z,48.28
2022-12-15T20:06:00.563Z,49.70
2022-12-15T20:08:32.867Z,56.70
2022-12-15T20:10:59.834Z,59.47
2022-12-15T20:13:26.577Z,61.83
2022-12-15T20:15:54.411Z,54.58
2022-12-15T20:18:21.202Z,55.33
2022-12-15T20:20:49.648Z,55.00
2022-12-15T20:23:26.180Z,38.13
2022-12-15T20:25:53.790Z,30.55
2022-12-15T20:28:24.715Z,23.23
2022-12-15T20:30:52.197Z,22.20
2022-12-15T20:33:19.970Z,16.23
2022-12-15T20:35:48.925Z,20.27
2022-12-15T20:38:31.936Z,14.75
2022-12-15T20:41:00.490Z,15.65
2022-12-15T20:43:31.736Z,15.75
2022-12-15T20:46:12.582Z,20.95
2022-12-15T20:48:39.336Z,18.20
2022-12-15T20:51:09.783Z,21.10
2022-12-15T20:53:37.828Z,26.70
2022-12-15T20:56:04.965Z,28.42
2022-12-15T20:58:33.348Z,23.25
2022-12-15T21:01:00.645Z,26.10
2022-12-15T21:03:34.217Z,24.23
2022-12-15T21:06:01.052Z,23.15
2022-12-15T21:08:32.405Z,26.02
2022-12-15T21:11:31.866Z,29.95
2022-12-15T21:14:04.031Z,56.33
2022-12-15T21:16:32.033Z,58.92
2022-12-15T21:19:19.784Z,58.90
2022-12-15T21:21:51.692Z,55.60
2022-12-15T21:24:24.740Z,56.53
2022-12-15T21:26:52.569Z,48.10
2022-12-15T21:29:26.200Z,37.10
2022-12-15T21:31:52.834Z,44.17
2022-12-15T21:34:19.381Z,44.72
2022-12-15T21:36:49.497Z,32.15
2022-12-15T21:39:24.036Z,29.60
2022-12-15T21:41:50.690Z,42.10
2022-12-15T21:44:18.487Z,44.58
2022-12-15T21:46:45.501Z,46.72
2022-12-15T21:49:18.264Z,50.03
2022-12-15T21:51:52.365Z,41.60
2022-12-15T21:54:30.878Z,39.15
2022-12-15T21:56:59.447Z,35.20
2022-12-15T21:59:29.412Z,33.97
2022-12-15T22:01:56.362Z,31.80
2022-12-15T22:04:30.152Z,30.90
2022-12-15T22:06:56.958Z,30.52
2022-12-15T22:09:23.697Z,31.25
2022-12-15T22:11:53.772Z,26.65
2022-12-15T22:14:34.215Z,23.35
2022-12-15T22:17:10.682Z,20.52
2022-12-15T22:19:37.265Z,20.17
2022-12-15T22:22:03.818Z,20.05
2022-12-15T22:24:30.969Z,19.83
2022-12-15T22:26:57.623Z,19.40
2022-12-15T22:29:25.019Z,23.58
2022-12-15T22:31:52.020Z,24.73
2022-12-15T22:34:22.050Z,21.02
2022-12-15T22:36:49.744Z,16.23
2022-12-15T22:39:18.805Z,15.57
2022-12-15T22:41:48.390Z,16.83
2022-12-15T22:44:19.743Z,18.00
2022-12-15T22:46:47.895Z,16.48
2022-12-15T22:49:28.975Z,23.15
2022-12-15T22:51:55.601Z,23.73
2022-12-15T22:54:24.473Z,23.65
2022-12-15T22:56:55.532Z,22.23
2022-12-15T22:59:54.625Z,26.17
2022-12-15T23:02:21.364Z,27.98
2022-12-15T23:04:48.097Z,33.17
2022-12-15T23:07:14.881Z,32.25
2022-12-15T23:09:41.469Z,30.50
2022-12-15T23:12:08.066Z,28.95
2022-12-15T23:14:52.988Z,30.08
2022-12-15T23:17:19.988Z,34.88
2022-12-15T23:19:47.344Z,47.65
2022-12-15T23:22:14.500Z,46.28
2022-12-15T23:24:41.216Z,31.08
2022-12-15T23:27:11.570Z,28.23
2022-12-15T23:29:38.276Z,38.85
2022-12-15T23:32:05.110Z,36.60
2022-12-15T23:34:31.724Z,25.35
2022-12-15T23:36:58.450Z,21.35
2022-12-15T23:39:24.994Z,22.75
2022-12-15T23:41:51.749Z,18.20
2022-12-15T23:44:18.346Z,18.48
2022-12-15T23:46:46.805Z,14.10
2022-12-15T23:49:13.544Z,16.40
2022-12-15T23:51:40.150Z,19.73
2022-12-15T23:54:06.785Z,20.38
2022-12-15T23:56:33.444Z,13.73
2022-12-15T23:59:00.095Z,10.98
